Time;durP1;ratioP1;P1;durP2;ratioP2;P2;SDS_P1;SDS_P2;PMS_P1;PMS_P2;Temp;Humidity;BMP_temperature;BMP_pressure;BME280_temperature;BME280_humidity;BME280_pressure;Samples;Min_cycle;Max_cycle;Signal;HPM_P1;HPM_P2
2022/04/13 00:03:31;;;;;;;8.80;2.95;;;;;;;12.17;53.65;99544.84;10320249;28;20100;-81
2022/04/13 00:08:33;;;;;;;9.15;3.05;;;;;;;12.04;53.88;99545.72;10317953;28;20063;-81
2022/04/13 00:13:35;;;;;;;6.38;2.78;;;;;;;11.88;54.24;99546.94;10301718;28;20070;-81
2022/04/13 00:18:38;;;;;;;8.88;3.45;;;;;;;11.77;54.55;99545.06;10319538;28;20420;-81
2022/04/13 00:23:40;;;;;;;8.05;3.20;;;;;;;11.79;54.43;99553.66;10319243;28;20113;-81
2022/04/13 00:28:42;;;;;;;6.38;3.13;;;;;;;11.74;54.53;99549.69;10319812;28;20946;-81
2022/04/13 00:33:43;;;;;;;6.43;2.90;;;;;;;11.68;54.81;99556.19;10316045;28;20081;-81
2022/04/13 00:38:45;;;;;;;6.32;2.88;;;;;;;11.64;55.03;99551.28;10314110;28;20046;-81
2022/04/13 00:44:05;;;;;;;7.18;2.97;;;;;;;11.50;55.75;99557.47;10316596;28;20520;-81
2022/04/13 00:49:07;;;;;;;7.38;2.90;;;;;;;11.60;55.28;99562.91;10318421;28;20121;-81
2022/04/13 00:54:11;;;;;;;9.38;2.90;;;;;;;11.63;55.23;99562.69;10318569;28;20054;-81
2022/04/13 00:59:14;;;;;;;6.47;3.17;;;;;;;11.61;55.06;99565.44;10317151;28;20050;-81
2022/04/13 01:04:17;;;;;;;8.10;3.10;;;;;;;11.50;55.37;99569.75;10318582;28;20050;-81
2022/04/13 01:09:19;;;;;;;5.53;2.92;;;;;;;11.43;55.69;99576.34;10315770;28;20070;-81
2022/04/13 01:14:21;;;;;;;5.95;2.83;;;;;;;11.39;55.68;99569.63;10318440;28;20058;-81
2022/04/13 01:19:23;;;;;;;6.30;3.08;;;;;;;11.27;55.78;99572.13;10317006;28;20077;-81
2022/04/13 01:24:26;;;;;;;5.82;3.13;;;;;;;11.17;56.14;99584.16;10318185;28;20082;-81
2022/04/13 01:29:28;;;;;;;8.60;3.10;;;;;;;11.19;56.15;99586.72;10316806;28;20064;-81
2022/04/13 01:34:29;;;;;;;6.25;3.08;;;;;;;10.99;56.66;99588.00;10316814;28;20108;-82
2022/04/13 01:39:31;;;;;;;5.70;3.10;;;;;;;11.04;56.79;99598.19;10315674;28;20086;-81
2022/04/13 01:44:33;;;;;;;6.57;3.00;;;;;;;10.98;56.80;99609.03;10316014;28;20050;-81
2022/04/13 01:49:38;;;;;;;6.95;4.38;;;;;;;11.08;56.60;99605.75;10317610;28;20104;-81
2022/04/13 01:54:40;;;;;;;7.63;3.60;;;;;;;11.01;56.89;99617.50;10316495;28;20121;-81
2022/04/13 01:59:42;;;;;;;6.93;3.47;;;;;;;10.99;56.91;99601.06;10318036;28;20152;-81
2022/04/13 02:04:44;;;;;;;9.70;2.90;;;;;;;11.09;56.67;99617.88;10320133;28;20113;-81
2022/04/13 02:09:45;;;;;;;6.55;2.83;;;;;;;11.13;56.50;99616.72;10320296;28;20070;-82
2022/04/13 02:14:47;;;;;;;9.90;3.20;;;;;;;11.10;56.53;99606.47;10319702;28;20054;-82
2022/04/13 02:19:49;;;;;;;7.28;3.00;;;;;;;11.15;56.60;99614.84;10301863;28;20555;-82
2022/04/13 02:24:51;;;;;;;6.03;2.85;;;;;;;11.22;56.51;99618.75;10318999;28;20089;-82
2022/04/13 02:29:53;;;;;;;5.80;3.08;;;;;;;11.22;56.26;99626.59;10318251;28;20105;-82
2022/04/13 02:34:55;;;;;;;8.05;3.00;;;;;;;11.14;56.64;99613.19;10322113;28;20108;-82
2022/04/13 02:39:56;;;;;;;5.57;2.83;;;;;;;11.01;56.88;99617.50;10317828;28;20116;-82
2022/04/13 02:44:59;;;;;;;8.23;3.00;;;;;;;10.90;56.98;99620.00;10318984;28;20050;-82
2022/04/13 02:50:02;;;;;;;4.78;2.97;;;;;;;10.66;57.68;99619.00;10318241;28;20078;-81
2022/04/13 02:55:04;;;;;;;5.20;3.00;;;;;;;10.58;57.72;99629.13;10315751;28;20050;-81
2022/04/13 03:00:06;;;;;;;10.25;3.25;;;;;;;10.49;57.63;99632.31;10314244;28;20058;-81
2022/04/13 03:05:08;;;;;;;7.22;3.10;;;;;;;10.42;57.73;99623.19;10312559;28;20473;-81
2022/04/13 03:10:11;;;;;;;6.25;2.60;;;;;;;10.33;57.94;99631.63;10310281;28;20397;-81
2022/04/13 03:15:14;;;;;;;5.82;3.15;;;;;;;10.30;57.96;99631.81;10312958;28;20519;-81
2022/04/13 03:20:15;;;;;;;5.20;2.90;;;;;;;10.13;58.53;99638.13;10312717;28;20058;-81
2022/04/13 03:25:17;;;;;;;8.13;3.53;;;;;;;10.07;58.80;99643.72;10295458;28;20147;-81
2022/04/13 03:30:19;;;;;;;5.20;3.22;;;;;;;10.00;58.95;99631.13;10295520;28;20049;-81
2022/04/13 03:35:22;;;;;;;6.53;3.30;;;;;;;9.88;59.25;99637.09;10313902;28;20101;-82
2022/04/13 03:40:26;;;;;;;7.65;2.97;;;;;;;9.75;59.71;99634.38;10314279;28;20108;-81
2022/04/13 03:45:27;;;;;;;7.28;2.70;;;;;;;9.78;59.56;99636.84;10318717;28;20056;-82
2022/04/13 03:50:29;;;;;;;5.03;2.80;;;;;;;9.76;59.43;99637.84;10319042;28;21024;-82
2022/04/13 03:55:31;;;;;;;6.05;3.00;;;;;;;9.77;59.39;99642.16;10302140;28;20082;-81
2022/04/13 04:00:33;;;;;;;7.20;3.03;;;;;;;9.72;59.62;99647.66;10317696;28;20081;-81
2022/04/13 04:05:35;;;;;;;7.15;3.20;;;;;;;9.67;59.86;99646.25;10319085;28;20480;-82
2022/04/13 04:10:37;;;;;;;5.07;3.22;;;;;;;9.66;59.81;99653.25;10319529;28;20148;-82
2022/04/13 04:15:39;;;;;;;9.07;3.22;;;;;;;9.70;59.63;99643.44;10319335;28;20073;-82
2022/04/13 04:20:41;;;;;;;4.80;2.78;;;;;;;9.65;59.45;99659.34;10317853;28;20129;-82
2022/04/13 04:25:43;;;;;;;4.85;3.03;;;;;;;9.53;59.50;99663.53;10319083;28;20050;-82
2022/04/13 04:30:45;;;;;;;7.80;2.90;;;;;;;9.38;59.87;99659.22;10318385;28;20559;-82
2022/04/13 04:35:51;;;;;;;6.43;4.60;;;;;;;9.30;60.09;99658.84;10319371;28;20054;-82
2022/04/13 04:40:53;;;;;;;11.07;7.32;;;;;;;9.21;60.22;99667.22;10318758;28;20054;-82
2022/04/13 04:45:55;;;;;;;8.52;5.65;;;;;;;9.17;60.18;99660.50;10317099;28;20058;-82
2022/04/13 04:50:57;;;;;;;7.65;4.20;;;;;;;9.12;60.29;99680.78;10318049;28;20050;-82
2022/04/13 04:56:00;;;;;;;6.25;4.10;;;;;;;9.07;60.34;99680.22;10317435;28;20061;-82
2022/04/13 05:01:02;;;;;;;6.93;4.53;;;;;;;9.01;60.60;99683.19;10316402;28;20730;-82
2022/04/13 05:06:04;;;;;;;6.22;4.30;;;;;;;9.03;60.65;99683.09;10315062;28;20427;-82
2022/04/13 05:11:05;;;;;;;6.80;4.13;;;;;;;9.07;60.59;99690.66;10315659;28;20098;-82
2022/04/13 05:16:07;;;;;;;7.65;3.83;;;;;;;9.11;60.46;99686.09;10300440;28;20078;-82
2022/04/13 05:21:09;;;;;;;5.85;3.83;;;;;;;9.27;60.23;99698.16;10300143;28;20093;-82
2022/04/13 05:26:11;;;;;;;7.50;3.50;;;;;;;9.41;60.02;99694.75;10317460;28;20050;-82
2022/04/13 05:31:13;;;;;;;18.25;10.00;;;;;;;9.49;59.94;99698.59;10297951;28;20046;-82
2022/04/13 05:36:15;;;;;;;16.83;8.55;;;;;;;9.70;59.27;99706.13;10316125;28;20063;-83
2022/04/13 05:41:17;;;;;;;15.43;7.57;;;;;;;9.80;59.20;99712.47;10316021;28;20880;-82
2022/04/13 05:46:19;;;;;;;12.20;6.68;;;;;;;9.89;58.97;99725.00;10316110;28;20140;-82
2022/04/13 05:51:20;;;;;;;8.50;3.67;;;;;;;10.04;58.68;99716.22;10315533;28;20082;-82
2022/04/13 05:56:22;;;;;;;6.47;3.63;;;;;;;10.24;58.22;99718.44;10313964;28;20120;-82
2022/04/13 06:01:30;;;;;;;6.32;3.90;;;;;;;10.36;57.84;99723.75;10315147;28;20057;-82
2022/04/13 06:06:31;;;;;;;5.75;3.45;;;;;;;10.67;57.33;99727.06;10315845;28;20085;-83
2022/04/13 06:11:33;;;;;;;13.15;6.40;;;;;;;10.84;56.81;99724.22;10313280;28;20050;-82
2022/04/13 06:16:36;;;;;;;9.55;4.15;;;;;;;10.98;56.71;99730.25;10314047;28;20054;-82
2022/04/13 06:22:03;;;;;;;63.85;37.60;;;;;;;11.35;55.90;99740.97;10313262;28;20064;-82
2022/04/13 06:27:05;;;;;;;44.05;26.17;;;;;;;11.57;55.50;99756.94;10314092;28;20055;-82
2022/04/13 06:32:07;;;;;;;13.18;7.40;;;;;;;11.80;55.26;99762.34;10315285;28;20058;-82
2022/04/13 06:37:09;;;;;;;9.88;5.22;;;;;;;12.02;54.63;99764.31;10297896;28;20538;-81
2022/04/13 06:42:12;;;;;;;6.28;3.08;;;;;;;11.97;54.53;99759.38;10307291;28;20109;-82
2022/04/13 06:47:18;;;;;;;6.68;3.60;;;;;;;12.22;54.65;99768.19;10304181;28;20057;-81
2022/04/13 06:52:26;;;;;;;6.78;3.33;;;;;;;12.38;54.25;99768.84;10312648;28;20058;-81
2022/04/13 06:57:29;;;;;;;8.57;3.25;;;;;;;12.52;54.07;99781.81;10306311;28;20070;-82
2022/04/13 07:02:35;;;;;;;7.07;4.07;;;;;;;12.78;53.33;99786.09;10310088;28;20486;-82
2022/04/13 07:08:02;;;;;;;6.70;3.33;;;;;;;13.00;52.38;99790.63;10308470;28;20058;-82
2022/04/13 07:13:07;;;;;;;9.18;3.97;;;;;;;13.44;52.06;99781.22;10309434;28;20062;-81
2022/04/13 07:18:09;;;;;;;6.55;3.75;;;;;;;13.72;51.59;99785.25;10314394;28;20570;-81
2022/04/13 07:23:12;;;;;;;10.18;3.03;;;;;;;14.01;51.30;99799.69;10314832;28;20054;-81
2022/04/13 07:28:15;;;;;;;7.68;3.10;;;;;;;14.26;50.66;99788.97;10318921;28;20180;-81
2022/04/13 07:33:20;;;;;;;5.90;3.08;;;;;;;14.50;49.73;99804.69;10300466;28;20463;-81
2022/04/13 07:38:29;;;;;;;5.13;3.00;;;;;;;14.92;48.80;99803.13;10316407;28;20447;-81
2022/04/13 07:43:34;;;;;;;8.77;3.70;;;;;;;15.79;47.04;99797.69;10316714;28;20054;-81
2022/04/13 07:48:37;;;;;;;6.50;3.47;;;;;;;16.40;46.02;99790.72;10311976;28;20054;-81
2022/04/13 07:53:39;;;;;;;7.03;3.50;;;;;;;16.91;45.06;99794.16;10314808;28;20050;-82
2022/04/13 07:58:45;;;;;;;7.55;3.58;;;;;;;17.40;42.62;99790.66;10317020;28;20054;-81
2022/04/13 08:03:49;;;;;;;5.13;3.38;;;;;;;17.51;40.99;99790.50;10316157;28;20062;-82
2022/04/13 08:09:17;;;;;;;6.18;2.88;;;;;;;18.06;36.38;99788.91;10315803;28;20337;-82
2022/04/13 08:14:20;;;;;;;8.52;3.35;;;;;;;18.32;38.96;99792.66;10318820;28;20078;-81
2022/04/13 08:19:23;;;;;;;8.88;3.38;;;;;;;18.24;39.06;99785.41;10308900;28;20061;-82
2022/04/13 08:24:29;;;;;;;8.18;3.40;;;;;;;18.41;38.13;99789.97;10308235;28;20173;-82
2022/04/13 08:29:33;;;;;;;7.70;3.35;;;;;;;18.57;37.36;99784.06;10309272;28;20516;-82
2022/04/13 08:34:36;;;;;;;5.95;3.20;;;;;;;18.70;37.56;99787.22;10313656;28;20121;-82
2022/04/13 08:39:44;;;;;;;7.72;3.30;;;;;;;19.00;36.56;99794.88;10313857;28;20078;-82
2022/04/13 08:44:51;;;;;;;8.23;3.40;;;;;;;19.16;36.44;99802.19;10314208;28;20080;-82
2022/04/13 08:49:53;;;;;;;7.80;3.03;;;;;;;19.19;35.82;99805.41;10314748;28;20132;-82
2022/04/13 08:55:14;;;;;;;8.48;3.38;;;;;;;19.49;35.15;99804.19;10315772;28;20062;-82
2022/04/13 09:00:18;;;;;;;6.68;3.55;;;;;;;19.52;35.10;99803.06;10298490;28;20419;-82
2022/04/13 09:05:31;;;;;;;7.18;3.08;;;;;;;19.70;34.45;99799.44;10314361;28;20566;-82
2022/04/13 09:10:33;;;;;;;4.80;2.88;;;;;;;19.87;34.30;99803.06;10314069;28;20082;-82
2022/04/13 09:15:38;;;;;;;6.78;3.17;;;;;;;20.18;33.93;99804.28;10315628;28;20046;-82
2022/04/13 09:20:45;;;;;;;9.30;3.28;;;;;;;20.38;33.83;99804.94;10314272;28;20061;-82
2022/04/13 09:25:51;;;;;;;8.13;3.08;;;;;;;20.53;34.84;99809.50;10313246;28;20054;-82
2022/04/13 09:37:16;;;;;;;7.13;3.08;;;;;;;21.46;32.53;99800.56;10310892;28;20046;-82
2022/04/13 09:42:19;;;;;;;7.30;3.05;;;;;;;21.06;33.07;99807.44;10311491;28;20054;-83
2022/04/13 09:47:21;;;;;;;9.02;3.10;;;;;;;21.26;32.86;99801.84;10311336;28;20078;-82
2022/04/13 09:52:32;;;;;;;8.35;2.95;;;;;;;21.92;31.96;99803.44;10312091;28;20071;-82
2022/04/13 09:57:34;;;;;;;8.45;2.78;;;;;;;21.62;31.79;99801.44;10313132;28;20117;-83
2022/04/13 10:02:39;;;;;;;11.70;2.92;;;;;;;21.62;32.13;99811.25;10314210;28;20120;-83
2022/04/13 10:07:41;;;;;;;11.70;3.08;;;;;;;21.58;32.01;99800.09;10311217;28;20050;-83
2022/04/13 10:12:47;;;;;;;5.60;3.00;;;;;;;21.61;32.21;99804.25;10312982;28;20062;-84
2022/04/13 10:17:49;;;;;;;6.10;2.95;;;;;;;22.23;31.27;99800.13;10313396;28;20054;-83
2022/04/13 10:23:03;;;;;;;8.82;2.90;;;;;;;22.09;31.71;99806.94;10312637;28;20058;-83
2022/04/13 10:28:05;;;;;;;7.07;2.70;;;;;;;22.09;31.77;99803.47;10312523;28;20484;-82
2022/04/13 10:33:14;;;;;;;7.20;2.88;;;;;;;21.98;30.68;99795.78;10313085;28;20566;-82
2022/04/13 10:38:34;;;;;;;6.63;2.47;;;;;;;21.85;30.00;99794.47;10308003;28;20534;-82
2022/04/13 10:43:37;;;;;;;;;;;;;;;21.79;30.56;99791.63;10322128;28;20054;-83
2022/04/13 10:48:43;;;;;;;8.75;2.25;;;;;;;22.17;29.90;99779.50;10308616;28;19976;-83
2022/04/13 10:53:58;;;;;;;6.55;2.10;;;;;;;22.18;29.00;99781.97;10315171;28;20527;-83
2022/04/13 10:59:14;;;;;;;12.52;2.05;;;;;;;22.34;26.77;99789.94;10321752;28;20472;-85
2022/04/13 11:04:16;;;;;;;8.35;2.40;;;;;;;22.30;27.79;99791.28;10319558;28;20463;-83
2022/04/13 11:09:26;;;;;;;5.75;1.80;;;;;;;22.50;27.95;99778.38;10321968;28;20057;-84
2022/04/13 11:14:28;;;;;;;7.13;2.20;;;;;;;22.56;28.04;99780.38;10321700;28;20104;-84
2022/04/13 11:19:30;;;;;;;8.82;2.10;;;;;;;22.52;28.02;99795.88;10319509;28;20140;-84
2022/04/13 11:24:40;;;;;;;6.75;2.20;;;;;;;22.67;27.33;99782.69;10320635;28;20144;-83
2022/04/13 11:29:44;;;;;;;8.70;2.45;;;;;;;22.36;27.56;99779.94;10319956;28;20052;-83
2022/04/13 11:34:49;;;;;;;6.57;1.80;;;;;;;22.40;27.03;99780.41;10314788;28;20550;-83
2022/04/13 11:40:10;;;;;;;4.38;1.85;;;;;;;22.41;26.68;99779.44;10314722;28;20089;-81
2022/04/13 11:45:21;;;;;;;6.18;2.00;;;;;;;22.48;28.13;99769.72;10312928;28;20065;-81
2022/04/13 11:50:24;;;;;;;9.00;2.08;;;;;;;22.74;27.36;99772.19;10311417;28;20065;-82
2022/04/13 11:55:39;;;;;;;5.57;2.00;;;;;;;23.05;27.36;99773.03;10313594;28;20058;-81
2022/04/13 12:00:50;;;;;;;4.30;1.75;;;;;;;23.17;26.81;99774.28;10312640;28;20090;-81
2022/04/13 12:06:12;;;;;;;6.97;2.00;;;;;;;23.12;26.57;99776.66;10311885;28;20053;-81
2022/04/13 12:11:19;;;;;;;6.97;1.83;;;;;;;23.10;26.37;99770.66;10312130;28;20054;-81
2022/04/13 12:16:22;;;;;;;6.18;2.00;;;;;;;23.12;26.85;99776.66;10312606;28;20082;-81
2022/04/13 12:21:26;;;;;;;4.45;1.88;;;;;;;23.11;26.83;99772.31;10309860;28;20546;-82
2022/04/13 12:26:41;;;;;;;6.13;1.80;;;;;;;23.34;26.47;99758.00;10312426;28;20069;-81
2022/04/13 12:31:47;;;;;;;5.13;1.83;;;;;;;23.68;26.53;99756.78;10313557;28;20050;-81
2022/04/13 12:36:50;;;;;;;5.43;1.75;;;;;;;23.87;26.78;99748.25;10312692;28;20128;-81
2022/04/13 12:41:52;;;;;;;10.02;1.90;;;;;;;23.84;26.75;99730.75;10317505;28;20492;-81
2022/04/13 12:47:08;;;;;;;6.50;2.03;;;;;;;23.89;25.77;99731.06;10293859;28;20149;-82
2022/04/13 12:52:10;;;;;;;6.53;1.95;;;;;;;23.95;26.01;99733.00;10314575;28;20563;-81
2022/04/13 12:57:12;;;;;;;7.82;1.90;;;;;;;24.15;25.97;99727.97;10312400;28;20054;-81
2022/04/13 13:02:19;;;;;;;6.20;2.42;;;;;;;24.18;24.77;99725.75;10309522;28;21114;-81
2022/04/13 13:07:33;;;;;;;8.50;2.00;;;;;;;24.09;26.82;99720.69;10296778;28;20061;-81
2022/04/13 13:12:35;;;;;;;4.82;1.70;;;;;;;24.12;25.79;99723.00;10314591;28;20065;-81
2022/04/13 13:17:42;;;;;;;8.57;2.00;;;;;;;24.28;26.49;99720.16;10313899;28;20054;-81
2022/04/13 13:22:53;;;;;;;7.38;2.00;;;;;;;24.03;26.55;99714.22;10312680;28;20062;-81
2022/04/13 13:27:56;;;;;;;6.75;2.15;;;;;;;24.19;26.20;99714.06;10308293;28;20054;-81
2022/04/13 13:32:58;;;;;;;9.95;2.15;;;;;;;24.34;26.10;99694.53;10308816;28;20085;-81
2022/04/13 13:38:12;;;;;;;4.32;1.80;;;;;;;24.21;24.85;99708.53;10291877;28;20133;-81
2022/04/13 13:43:18;;;;;;;7.88;2.05;;;;;;;24.27;25.39;99708.63;10307546;28;20062;-81
2022/04/13 13:48:27;;;;;;;5.72;1.92;;;;;;;24.30;25.73;99710.13;10306616;28;20065;-81
2022/04/13 13:53:29;;;;;;;10.07;2.03;;;;;;;24.32;25.66;99712.59;10308092;28;20866;-81
2022/04/13 13:58:31;;;;;;;7.03;1.90;;;;;;;24.50;25.26;99705.84;10310152;28;20500;-81
2022/04/13 14:03:34;;;;;;;9.55;2.10;;;;;;;24.47;24.94;99706.22;10306279;28;20149;-81
2022/04/13 14:08:36;;;;;;;7.53;2.08;;;;;;;24.48;25.09;99720.41;10310342;28;20046;-81
2022/04/13 14:13:38;;;;;;;9.20;2.00;;;;;;;24.33;25.55;99709.72;10310244;28;20061;-81
2022/04/13 14:18:40;;;;;;;11.25;2.00;;;;;;;24.51;25.72;99712.03;10312353;28;20382;-81
2022/04/13 14:23:42;;;;;;;7.43;2.40;;;;;;;24.58;26.05;99719.13;10293353;28;20057;-81
2022/04/13 14:28:46;;;;;;;6.82;2.05;;;;;;;24.38;25.10;99711.84;10312106;28;20043;-81
2022/04/13 14:33:47;;;;;;;7.45;2.00;;;;;;;24.38;25.54;99704.66;10311299;28;20061;-81
2022/04/13 14:38:49;;;;;;;8.43;2.10;;;;;;;24.34;25.84;99700.72;10310792;28;20099;-82
2022/04/13 14:43:52;;;;;;;8.52;1.90;;;;;;;24.18;25.90;99715.06;10309173;28;20054;-81
2022/04/13 14:48:54;;;;;;;7.50;2.30;;;;;;;24.02;26.46;99706.41;10308224;28;20046;-81
2022/04/13 14:53:57;;;;;;;7.30;2.20;;;;;;;23.88;26.33;99705.34;10306128;28;20137;-81
2022/04/13 14:59:00;;;;;;;8.57;1.90;;;;;;;23.88;26.19;99707.22;10311619;28;20054;-81
2022/04/13 15:04:02;;;;;;;8.02;2.33;;;;;;;23.79;27.26;99706.44;10309943;28;20484;-83
2022/04/13 15:09:11;;;;;;;11.43;2.20;;;;;;;23.94;26.39;99711.81;10308757;28;20054;-82
2022/04/13 15:14:14;;;;;;;7.63;2.10;;;;;;;24.06;26.87;99707.69;10312866;28;20069;-82
2022/04/13 15:19:19;;;;;;;6.53;2.45;;;;;;;24.20;27.02;99699.72;10308792;28;20074;-82
2022/04/13 15:24:28;;;;;;;10.93;2.10;;;;;;;24.20;27.68;99704.22;10312696;28;20054;-84
2022/04/13 15:29:30;;;;;;;5.25;1.90;;;;;;;24.18;27.36;99711.59;10309808;28;20046;-82
2022/04/13 15:34:33;;;;;;;5.35;2.30;;;;;;;24.06;26.31;99707.69;10312771;28;20061;-83
2022/04/13 15:39:41;;;;;;;7.10;2.20;;;;;;;24.02;26.77;99712.53;10317589;28;20058;-84
2022/04/13 15:44:46;;;;;;;10.48;2.15;;;;;;;24.09;26.84;99718.84;10317791;28;20143;-82
2022/04/13 15:49:49;;;;;;;12.85;2.42;;;;;;;24.04;26.93;99713.19;10312799;28;20050;-81
2022/04/13 15:54:54;;;;;;;8.73;2.03;;;;;;;23.88;27.54;99721.38;10312724;28;20066;-82
2022/04/13 15:59:56;;;;;;;13.57;2.30;;;;;;;23.74;27.79;99724.84;10311909;28;20046;-82
2022/04/13 16:04:58;;;;;;;11.52;2.22;;;;;;;23.63;28.18;99724.44;10314697;28;20050;-82
2022/04/13 16:10:00;;;;;;;10.77;2.30;;;;;;;23.35;28.75;99729.50;10316053;28;20101;-83
2022/04/13 16:15:03;;;;;;;10.05;2.13;;;;;;;23.10;28.67;99730.66;10317046;28;20120;-82
2022/04/13 16:20:06;;;;;;;11.50;2.28;;;;;;;23.02;28.85;99739.53;10316189;28;20050;-82
2022/04/13 16:25:08;;;;;;;6.47;2.17;;;;;;;22.94;29.20;99736.94;10316438;28;20050;-82
2022/04/13 16:30:11;;;;;;;8.02;2.08;;;;;;;22.95;29.21;99735.91;10317517;28;20101;-82
2022/04/13 16:35:12;;;;;;;20.73;3.00;;;;;;;22.77;30.33;99746.00;10313271;28;20058;-82
2022/04/13 16:40:14;;;;;;;12.18;2.30;;;;;;;22.57;31.62;99745.56;10310179;28;20105;-82
2022/04/13 16:45:21;;;;;;;28.75;3.08;;;;;;;22.46;32.43;99747.75;10311761;28;20161;-82
2022/04/13 16:50:23;;;;;;;14.73;2.58;;;;;;;22.23;33.46;99754.84;10313691;28;20077;-82
2022/04/13 16:55:27;;;;;;;13.15;3.05;;;;;;;21.92;34.06;99770.66;10315242;28;20090;-82
2022/04/13 17:00:29;;;;;;;10.05;2.80;;;;;;;21.92;34.05;99770.66;10297799;28;20054;-82
2022/04/13 17:05:37;;;;;;;12.10;2.85;;;;;;;21.76;34.36;99763.50;10314899;28;20151;-82
2022/04/13 17:10:38;;;;;;;13.30;3.05;;;;;;;21.63;34.63;99775.66;10312553;28;20050;-82
2022/04/13 17:15:40;;;;;;;12.45;3.10;;;;;;;21.46;35.09;99771.31;10314947;28;20054;-82
2022/04/13 17:20:42;;;;;;;11.30;3.20;;;;;;;21.26;35.53;99769.91;10315393;28;20051;-82
2022/04/13 17:25:44;;;;;;;9.93;2.80;;;;;;;21.07;36.26;99771.88;10295540;28;20455;-82
2022/04/13 17:30:47;;;;;;;10.70;3.00;;;;;;;20.95;36.26;99786.47;10311454;28;20137;-82
2022/04/13 17:35:51;;;;;;;12.32;3.13;;;;;;;20.96;36.76;99793.47;10305498;28;20061;-83
2022/04/13 17:40:53;;;;;;;8.25;2.78;;;;;;;20.88;37.14;99800.56;10308457;28;20451;-82
2022/04/13 17:45:56;;;;;;;13.18;2.85;;;;;;;20.73;37.03;99805.66;10309202;28;20058;-82
2022/04/13 17:50:58;;;;;;;11.48;2.78;;;;;;;20.46;37.31;99813.75;10309267;28;20064;-82
2022/04/13 17:56:03;;;;;;;16.58;3.92;;;;;;;20.34;37.81;99816.88;10287668;28;20058;-83
2022/04/13 18:01:05;;;;;;;9.65;2.97;;;;;;;20.05;37.88;99828.59;10307491;28;20050;-83
2022/04/13 18:06:07;;;;;;;7.38;2.85;;;;;;;19.94;38.36;99838.63;10291924;28;20065;-82
2022/04/13 18:11:09;;;;;;;13.98;3.50;;;;;;;19.87;39.27;99840.22;10304930;28;20133;-82
2022/04/13 18:16:11;;;;;;;9.55;3.58;;;;;;;19.70;39.89;99849.00;10299795;28;20054;-82
2022/04/13 18:21:12;;;;;;;11.07;3.35;;;;;;;19.51;40.62;99860.59;10289913;28;20140;-82
2022/04/13 18:26:14;;;;;;;10.85;3.20;;;;;;;19.24;41.06;99864.09;10307681;28;20097;-82
2022/04/13 18:31:19;;;;;;;12.85;3.20;;;;;;;19.00;42.04;99868.22;10309781;28;20069;-82
2022/04/13 18:36:22;;;;;;;9.25;3.17;;;;;;;18.84;42.12;99874.16;10306175;28;20050;-82
2022/04/13 18:41:25;;;;;;;13.10;3.42;;;;;;;18.65;43.23;99893.59;10298862;28;20136;-82
2022/04/13 18:46:27;;;;;;;9.85;3.38;;;;;;;18.44;43.74;99900.91;10300038;28;20128;-82
2022/04/13 18:51:30;;;;;;;9.80;3.42;;;;;;;18.30;44.28;99903.16;10301825;28;20046;-82
2022/04/13 18:56:32;;;;;;;13.73;3.72;;;;;;;18.12;44.85;99915.38;10284128;28;20481;-82
2022/04/13 19:01:33;;;;;;;12.02;3.30;;;;;;;18.01;44.91;99913.75;10298560;28;20592;-82
2022/04/13 19:06:35;;;;;;;13.55;3.30;;;;;;;17.88;45.55;99925.53;10283881;28;20502;-81
2022/04/13 19:11:38;;;;;;;9.60;3.47;;;;;;;17.88;45.88;99928.19;10284011;28;20139;-82
2022/04/13 19:16:41;;;;;;;12.45;4.85;;;;;;;17.75;46.07;99942.53;10308387;28;20081;-82
2022/04/13 19:21:44;;;;;;;13.85;3.80;;;;;;;17.72;46.00;99948.09;10307641;28;20361;-81
2022/04/13 19:26:46;;;;;;;14.25;4.35;;;;;;;17.77;46.08;99942.41;10319478;28;21156;-80
2022/04/13 19:31:48;;;;;;;13.82;4.80;;;;;;;17.62;46.33;99947.25;10311403;28;20497;-81
2022/04/13 19:36:50;;;;;;;9.77;4.13;;;;;;;17.68;46.52;99949.34;10314961;28;20072;-82
2022/04/13 19:41:52;;;;;;;12.63;4.32;;;;;;;17.67;46.64;99960.88;10315041;28;20145;-81
2022/04/13 19:46:54;;;;;;;10.75;3.78;;;;;;;17.73;46.33;99957.69;10313666;28;20189;-82
2022/04/13 19:51:55;;;;;;;11.48;3.67;;;;;;;17.72;46.60;99966.63;10315287;28;20892;-81
2022/04/13 19:56:57;;;;;;;11.25;3.80;;;;;;;17.60;47.00;99972.16;10317324;28;20053;-81
2022/04/13 20:01:59;;;;;;;12.88;3.85;;;;;;;17.55;47.05;99985.78;10317419;28;20085;-81
2022/04/13 20:07:02;;;;;;;11.27;4.28;;;;;;;17.48;47.35;99989.09;10315811;28;20197;-81
2022/04/13 20:12:04;;;;;;;9.45;4.00;;;;;;;17.47;47.35;99997.97;10315038;28;20097;-81
2022/04/13 20:17:06;;;;;;;10.77;4.50;;;;;;;17.34;48.05;99998.25;10315087;28;20054;-81
2022/04/13 20:22:08;;;;;;;11.80;4.03;;;;;;;17.18;48.36;100012.88;10297221;28;20148;-81
2022/04/13 20:27:10;;;;;;;10.07;4.13;;;;;;;17.11;48.75;100012.56;10298071;28;20077;-81
2022/04/13 20:32:11;;;;;;;14.13;4.68;;;;;;;17.06;48.61;100017.38;10315239;28;20054;-81
2022/04/13 20:37:14;;;;;;;12.93;5.00;;;;;;;17.06;48.80;100029.78;10315192;28;20078;-81
2022/04/13 20:42:16;;;;;;;12.15;4.45;;;;;;;16.99;49.02;100019.72;10315298;28;20062;-81
2022/04/13 20:47:18;;;;;;;8.45;4.65;;;;;;;16.94;49.16;100021.06;10314775;28;20132;-81
2022/04/13 20:52:19;;;;;;;13.85;5.00;;;;;;;16.89;49.32;100020.63;10314136;28;20082;-81
2022/04/13 20:57:21;;;;;;;11.70;5.35;;;;;;;16.89;49.29;100023.25;10315274;28;20077;-81
2022/04/13 21:02:23;;;;;;;14.02;5.45;;;;;;;16.91;49.46;100024.81;10311412;28;20463;-81
2022/04/13 21:07:25;;;;;;;15.10;5.40;;;;;;;16.94;49.71;100019.25;10313329;28;20085;-81
2022/04/13 21:12:27;;;;;;;15.45;6.00;;;;;;;16.88;49.46;100029.50;10313154;28;20524;-81
2022/04/13 21:17:32;;;;;;;16.23;7.18;;;;;;;16.71;50.46;100032.72;10313468;28;20108;-81
2022/04/13 21:22:34;;;;;;;16.05;6.63;;;;;;;16.74;50.09;100035.94;10313490;28;20147;-81
2022/04/13 21:27:36;;;;;;;15.15;7.30;;;;;;;16.63;50.58;100037.81;10312757;28;20046;-81
2022/04/13 21:32:38;;;;;;;15.45;7.60;;;;;;;16.65;50.27;100036.69;10313391;28;20832;-81
2022/04/13 21:37:40;;;;;;;14.65;7.90;;;;;;;16.73;50.18;100034.25;10312893;28;20050;-81
2022/04/13 21:42:42;;;;;;;14.98;7.88;;;;;;;16.63;50.62;100027.25;10296567;28;20108;-81
2022/04/13 21:47:43;;;;;;;17.25;7.80;;;;;;;16.59;50.94;100037.22;10314085;28;20042;-81
2022/04/13 21:52:45;;;;;;;15.52;8.40;;;;;;;16.47;51.27;100037.41;10313550;28;20051;-82
2022/04/13 21:57:47;;;;;;;14.88;8.63;;;;;;;16.42;51.32;100040.38;10313512;28;20058;-81
2022/04/13 22:02:49;;;;;;;15.80;8.60;;;;;;;16.39;51.23;100034.50;10312640;28;20050;-81
2022/04/13 22:07:55;;;;;;;16.83;8.25;;;;;;;16.30;51.33;100035.28;10312151;28;20161;-81
2022/04/13 22:12:56;;;;;;;17.05;8.82;;;;;;;16.23;51.70;100034.94;10312213;28;20062;-81
2022/04/13 22:17:59;;;;;;;17.48;9.88;;;;;;;16.13;51.96;100039.28;10293788;28;20057;-81
2022/04/13 22:23:02;;;;;;;18.35;10.88;;;;;;;16.02;52.32;100048.06;10293521;28;20116;-81
2022/04/13 22:28:08;;;;;;;19.52;9.98;;;;;;;16.06;52.20;100044.19;10312868;28;20050;-81
2022/04/13 22:33:10;;;;;;;17.08;10.10;;;;;;;15.95;52.50;100051.31;10309463;28;20094;-81
2022/04/13 22:38:12;;;;;;;20.80;11.80;;;;;;;15.91;52.48;100060.44;10311493;28;20914;-81
2022/04/13 22:43:13;;;;;;;18.15;11.10;;;;;;;15.81;52.65;100057.69;10311837;28;20085;-81
2022/04/13 22:48:16;;;;;;;23.05;11.48;;;;;;;15.76;52.65;100057.22;10309472;28;20089;-81
2022/04/13 22:53:17;;;;;;;19.90;12.13;;;;;;;15.73;52.83;100052.19;10311424;28;20097;-81
2022/04/13 22:58:19;;;;;;;14.88;10.48;;;;;;;15.71;52.78;100048.84;10300791;28;20046;-81
2022/04/13 23:03:21;;;;;;;17.27;11.57;;;;;;;15.64;53.00;100055.53;10310983;28;20077;-81
2022/04/13 23:08:22;;;;;;;16.33;10.30;;;;;;;15.55;53.13;100055.44;10311166;28;20133;-81
2022/04/13 23:13:24;;;;;;;19.52;11.13;;;;;;;15.45;53.31;100064.97;10313039;28;20133;-81
2022/04/13 23:18:26;;;;;;;16.77;10.80;;;;;;;15.35;53.49;100073.59;10311641;28;20046;-81
2022/04/13 23:23:28;;;;;;;19.95;10.82;;;;;;;15.30;53.48;100067.00;10311426;28;20136;-81
2022/04/13 23:28:29;;;;;;;17.05;9.73;;;;;;;15.37;53.27;100076.09;10309389;28;21032;-81
2022/04/13 23:33:31;;;;;;;16.63;9.68;;;;;;;15.33;53.30;100070.22;10311314;28;20500;-81